Bassett, Kansas
Current Conditions -  °F | °C
As of 3:52 AM on Sunday 25 Jan 2015 (Local Time) from KCNU Reporting Station
Overcast Overcast  
Wind Chill: 44°   Ceiling: 6000
Heat Index: 49°   Visibility: 10mi
Dew Point: 38°   Wind: 14mph
Humidity: 66%   Direction: 300°WNW
Pressure: 29.75"   Gusts: NA
Location:  37.9552°N, 95.4332°W
Report Text: KCNU 250952Z AUTO 30012KT 10SM BKN060 OVC070 09/03 A2975 RMK AO2 SLP069 T00940033
Loading
Personal Weather Stations






























Interactive Weather Map New forecast layout! Learn more

10-Day Weather Forecast

Advertisements
Track Severe Weather on mobile